createdAt,value
2023-04-17T00:00:51.684Z,500.00
2023-04-17T00:01:50.746Z,500.00
2023-04-17T00:02:51.875Z,498.00
2023-04-17T00:03:51.988Z,500.00
2023-04-17T00:04:51.924Z,499.00
2023-04-17T00:05:51.882Z,500.00
2023-04-17T00:06:51.903Z,497.00
2023-04-17T00:07:51.963Z,498.00
2023-04-17T00:08:51.966Z,505.00
2023-04-17T00:09:51.961Z,512.00
2023-04-17T00:11:04.209Z,500.00
2023-04-17T00:11:52.005Z,473.00
2023-04-17T00:12:52.074Z,495.00
2023-04-17T00:13:52.046Z,504.00
2023-04-17T00:14:52.036Z,506.00
2023-04-17T00:15:52.066Z,492.00
2023-04-17T00:16:52.204Z,505.00
2023-04-17T00:17:52.189Z,519.00
2023-04-17T00:18:52.159Z,545.00
2023-04-17T00:19:53.287Z,562.00
2023-04-17T00:20:52.163Z,565.00
2023-04-17T00:21:52.177Z,560.00
2023-04-17T00:22:52.174Z,543.00
2023-04-17T00:23:52.169Z,527.00
2023-04-17T00:24:52.173Z,498.00
2023-04-17T00:25:52.175Z,501.00
2023-04-17T00:26:52.198Z,498.00
2023-04-17T00:27:52.186Z,495.00
2023-04-17T00:28:52.267Z,495.00
2023-04-17T00:29:52.239Z,500.00
2023-04-17T00:30:52.249Z,499.00
2023-04-17T00:31:52.391Z,500.00
2023-04-17T00:32:52.420Z,503.00
2023-04-17T00:33:52.465Z,521.00
2023-04-17T00:34:54.507Z,527.00
2023-04-17T00:35:52.547Z,527.00
2023-04-17T00:36:52.548Z,532.00
2023-04-17T00:37:52.582Z,543.00
2023-04-17T00:38:52.570Z,561.00
2023-04-17T00:39:52.614Z,590.00
2023-04-17T00:40:52.579Z,609.00
2023-04-17T00:41:52.573Z,619.00
2023-04-17T00:42:52.597Z,628.00
2023-04-17T00:43:52.559Z,631.00
2023-04-17T00:44:52.554Z,630.00
2023-04-17T00:45:52.627Z,638.00
2023-04-17T00:46:52.528Z,644.00
2023-04-17T00:47:52.523Z,646.00
2023-04-17T00:48:52.507Z,642.00
2023-04-17T00:49:52.488Z,629.00
2023-04-17T00:50:52.487Z,606.00
2023-04-17T00:51:52.472Z,621.00
2023-04-17T00:52:52.467Z,622.00
2023-04-17T00:53:52.458Z,596.00
2023-04-17T00:54:52.434Z,581.00
2023-04-17T00:55:52.435Z,562.00
2023-04-17T00:56:52.419Z,556.00
2023-04-17T00:57:52.423Z,504.00
2023-04-17T00:58:52.453Z,500.00
2023-04-17T00:59:52.413Z,502.00
2023-04-17T01:00:52.394Z,489.00
2023-04-17T01:01:52.536Z,558.00
2023-04-17T01:02:52.495Z,551.00
2023-04-17T01:03:52.586Z,499.00
2023-04-17T01:04:52.423Z,519.00
2023-04-17T01:05:52.362Z,551.00
2023-04-17T01:06:52.362Z,558.00
2023-04-17T01:07:52.372Z,495.00
2023-04-17T01:08:52.351Z,499.00
2023-04-17T01:09:52.343Z,506.00
2023-04-17T01:10:52.357Z,539.00
2023-04-17T01:11:52.354Z,561.00
2023-04-17T01:12:52.318Z,586.00
2023-04-17T01:13:52.305Z,588.00
2023-04-17T01:14:52.301Z,602.00
2023-04-17T01:15:52.303Z,612.00
2023-04-17T01:16:52.329Z,621.00
2023-04-17T01:17:52.420Z,646.00
2023-04-17T01:18:52.279Z,644.00
2023-04-17T01:19:52.278Z,623.00
2023-04-17T01:20:52.257Z,613.00
2023-04-17T01:21:52.243Z,614.00
2023-04-17T01:22:52.241Z,601.00
2023-04-17T01:23:52.257Z,625.00
2023-04-17T01:24:52.209Z,635.00
2023-04-17T01:25:52.197Z,590.00
2023-04-17T01:26:52.234Z,578.00
2023-04-17T01:27:52.302Z,586.00
2023-04-17T01:28:52.365Z,573.00
2023-04-17T01:29:52.422Z,533.00
2023-04-17T01:30:52.482Z,500.00
2023-04-17T01:31:52.524Z,519.00
2023-04-17T01:32:52.618Z,500.00
2023-04-17T01:33:52.681Z,482.00
2023-04-17T01:34:52.742Z,500.00
2023-04-17T01:35:52.782Z,500.00
2023-04-17T01:36:52.836Z,504.00
2023-04-17T01:37:52.900Z,517.00
2023-04-17T01:38:52.956Z,518.00
2023-04-17T01:39:53.027Z,541.00
2023-04-17T01:40:53.156Z,539.00
2023-04-17T01:41:53.155Z,551.00
2023-04-17T01:42:53.219Z,625.00
2023-04-17T01:43:53.285Z,579.00
2023-04-17T01:44:53.355Z,530.00
2023-04-17T01:45:53.421Z,504.00
2023-04-17T01:46:53.413Z,448.00
2023-04-17T01:47:53.421Z,500.00
2023-04-17T01:48:53.412Z,493.00
2023-04-17T01:49:53.437Z,493.00
2023-04-17T01:50:53.453Z,494.00
2023-04-17T01:51:53.464Z,457.00
2023-04-17T01:52:53.442Z,512.00
2023-04-17T01:53:53.500Z,592.00
2023-04-17T01:54:53.526Z,551.00
2023-04-17T01:55:53.604Z,628.00
2023-04-17T01:56:53.641Z,605.00
2023-04-17T01:57:53.694Z,645.00
2023-04-17T01:58:53.738Z,1157.00
2023-04-17T01:59:53.749Z,1409.00
2023-04-17T02:00:53.823Z,1661.00
2023-04-17T02:01:54.046Z,1902.00
2023-04-17T02:02:54.057Z,2063.00
2023-04-17T02:03:54.436Z,2229.00
2023-04-17T02:04:54.189Z,2292.00
2023-04-17T02:05:54.238Z,2288.00
2023-04-17T02:06:54.259Z,2253.00
2023-04-17T02:07:54.336Z,2137.00
2023-04-17T02:08:54.473Z,2078.00
2023-04-17T02:09:54.504Z,2081.00
2023-04-17T02:10:54.594Z,2053.00
2023-04-17T02:11:54.666Z,1920.00
2023-04-17T02:12:54.725Z,1834.00
2023-04-17T02:13:54.778Z,1719.00
2023-04-17T02:14:54.818Z,1573.00
2023-04-17T02:15:54.894Z,1569.00
2023-04-17T02:16:54.917Z,1569.00
2023-04-17T02:17:55.045Z,1602.00
2023-04-17T02:18:55.067Z,1659.00
2023-04-17T02:19:55.122Z,1752.00
2023-04-17T02:20:55.164Z,1930.00
2023-04-17T02:21:56.355Z,1999.00
2023-04-17T02:22:55.247Z,2037.00
2023-04-17T02:23:55.281Z,1977.00
2023-04-17T02:24:55.306Z,1976.00
2023-04-17T02:25:55.334Z,1989.00
2023-04-17T02:26:55.364Z,2018.00
2023-04-17T02:27:55.376Z,2011.00
2023-04-17T02:28:55.415Z,1839.00
2023-04-17T02:29:55.407Z,1763.00
2023-04-17T02:30:55.495Z,1767.00
2023-04-17T02:31:55.452Z,1784.00
2023-04-17T02:32:55.528Z,1877.00
2023-04-17T02:33:55.489Z,1893.00
2023-04-17T02:34:55.504Z,1771.00
2023-04-17T02:35:55.501Z,1755.00
2023-04-17T02:36:55.501Z,1800.00
2023-04-17T02:37:55.550Z,1818.00
2023-04-17T02:38:55.517Z,1766.00
2023-04-17T02:39:55.536Z,1738.00
2023-04-17T02:40:55.551Z,1725.00
2023-04-17T02:41:55.559Z,1720.00
2023-04-17T02:42:55.615Z,1623.00
2023-04-17T02:43:55.579Z,1626.00
2023-04-17T02:44:55.587Z,1630.00
2023-04-17T02:45:55.611Z,1609.00
2023-04-17T02:46:55.639Z,1504.00
2023-04-17T02:47:55.718Z,1426.00
2023-04-17T02:48:55.669Z,1401.00
2023-04-17T02:49:55.665Z,1403.00
2023-04-17T02:50:55.691Z,1498.00
2023-04-17T02:51:55.685Z,1476.00
2023-04-17T02:52:55.707Z,1447.00
2023-04-17T02:53:55.738Z,1461.00
2023-04-17T02:54:55.717Z,1509.00
2023-04-17T02:55:55.717Z,1451.00
2023-04-17T02:56:55.717Z,1468.00
2023-04-17T02:57:55.728Z,1535.00
2023-04-17T02:58:55.769Z,1569.00
2023-04-17T02:59:55.824Z,1650.00
2023-04-17T03:00:55.914Z,1766.00
2023-04-17T03:01:56.074Z,1802.00
2023-04-17T03:02:56.167Z,1827.00
2023-04-17T03:03:56.614Z,1875.00
2023-04-17T03:04:56.157Z,1938.00
2023-04-17T03:05:56.219Z,1978.00
2023-04-17T03:06:56.335Z,2036.00
2023-04-17T03:07:56.352Z,2086.00
2023-04-17T03:08:56.399Z,2138.00
2023-04-17T03:09:56.495Z,2169.00
2023-04-17T03:10:56.530Z,2359.00
2023-04-17T03:11:56.612Z,2240.00
2023-04-17T03:12:56.668Z,2197.00
2023-04-17T03:13:56.729Z,2314.00
2023-04-17T03:14:56.752Z,2330.00
2023-04-17T03:15:56.846Z,2238.00
2023-04-17T03:16:56.966Z,2181.00
2023-04-17T03:17:57.076Z,2065.00
2023-04-17T03:18:57.036Z,2042.00
2023-04-17T03:19:57.136Z,2082.00
2023-04-17T03:20:57.201Z,2113.00
2023-04-17T03:21:57.265Z,2101.00
2023-04-17T03:22:57.305Z,2022.00
2023-04-17T03:23:57.326Z,1924.00
2023-04-17T03:24:57.360Z,1879.00
2023-04-17T03:25:57.441Z,1882.00
2023-04-17T03:26:57.486Z,1900.00
2023-04-17T03:27:57.532Z,1945.00
2023-04-17T03:28:57.592Z,2064.00
2023-04-17T03:29:57.653Z,2140.00
2023-04-17T03:30:57.719Z,2128.00
2023-04-17T03:31:57.861Z,2172.00
2023-04-17T03:32:57.863Z,2177.00
2023-04-17T03:33:57.898Z,2200.00
2023-04-17T03:34:57.949Z,2211.00
2023-04-17T03:35:58.006Z,2233.00
2023-04-17T03:36:58.064Z,2150.00
2023-04-17T03:37:58.158Z,2158.00
2023-04-17T03:38:58.198Z,2115.00
2023-04-17T03:39:58.256Z,2101.00
2023-04-17T03:40:58.334Z,2141.00
2023-04-17T03:41:58.400Z,2133.00
2023-04-17T03:42:58.479Z,2089.00
2023-04-17T03:43:58.492Z,2112.00
2023-04-17T03:44:58.563Z,2078.00
2023-04-17T03:45:58.670Z,2179.00
2023-04-17T03:46:58.656Z,2251.00
2023-04-17T03:47:58.807Z,2248.00
2023-04-17T03:48:58.761Z,2150.00
2023-04-17T03:49:58.846Z,2049.00
2023-04-17T03:50:58.847Z,2136.00
2023-04-17T03:51:58.897Z,2100.00
2023-04-17T03:52:58.980Z,2053.00
2023-04-17T03:53:59.012Z,1990.00
2023-04-17T03:54:59.057Z,1983.00
2023-04-17T03:55:59.129Z,2142.00
2023-04-17T03:56:59.182Z,2391.00
2023-04-17T03:57:59.206Z,2464.00
2023-04-17T03:58:59.234Z,2489.00
2023-04-17T03:59:59.281Z,2465.00
2023-04-17T04:00:59.353Z,2489.00
2023-04-17T04:01:59.497Z,2552.00
2023-04-17T04:02:59.624Z,2613.00
2023-04-17T04:03:59.555Z,2610.00
2023-04-17T04:04:59.597Z,2642.00
2023-04-17T04:05:59.601Z,2679.00
2023-04-17T04:06:59.555Z,2701.00
2023-04-17T04:07:59.587Z,2718.00
2023-04-17T04:08:59.616Z,2676.00
2023-04-17T04:09:59.665Z,2644.00
2023-04-17T04:10:59.683Z,2644.00
2023-04-17T04:11:59.718Z,2648.00
2023-04-17T04:12:59.769Z,2608.00
2023-04-17T04:13:59.844Z,2543.00
2023-04-17T04:14:59.906Z,2513.00
2023-04-17T04:16:00.153Z,2563.00
2023-04-17T04:17:00.048Z,2820.00
2023-04-17T04:18:00.158Z,2618.00
2023-04-17T04:19:00.152Z,2457.00
2023-04-17T04:20:00.219Z,2342.00
2023-04-17T04:21:00.355Z,2183.00
2023-04-17T04:22:00.349Z,2068.00
2023-04-17T04:23:00.370Z,2049.00
2023-04-17T04:24:00.399Z,2029.00
2023-04-17T04:25:00.444Z,2079.00
2023-04-17T04:26:00.499Z,2123.00
2023-04-17T04:27:00.509Z,2128.00
2023-04-17T04:28:00.560Z,2188.00
2023-04-17T04:29:00.616Z,2304.00
2023-04-17T04:30:00.670Z,2408.00
2023-04-17T04:31:00.740Z,2448.00
2023-04-17T04:32:00.720Z,2399.00
2023-04-17T04:33:00.845Z,2403.00
2023-04-17T04:34:00.840Z,2398.00
2023-04-17T04:35:00.906Z,2273.00
2023-04-17T04:36:01.273Z,2271.00
2023-04-17T04:37:01.041Z,2279.00
2023-04-17T04:38:01.117Z,2252.00
2023-04-17T04:39:01.167Z,2237.00
2023-04-17T04:40:01.208Z,2243.00
2023-04-17T04:41:01.282Z,2248.00
2023-04-17T04:42:01.339Z,2210.00
2023-04-17T04:43:01.412Z,2204.00
2023-04-17T04:44:01.522Z,2166.00
2023-04-17T04:45:01.592Z,2202.00
2023-04-17T04:46:01.714Z,2255.00
2023-04-17T04:47:01.802Z,2317.00
2023-04-17T04:48:01.698Z,2414.00
2023-04-17T04:49:01.724Z,2617.00
2023-04-17T04:50:01.701Z,2731.00
2023-04-17T04:51:01.721Z,2840.00
2023-04-17T04:52:01.733Z,2978.00
2023-04-17T04:53:01.767Z,3048.00
2023-04-17T04:54:01.785Z,3001.00
2023-04-17T04:55:01.870Z,2992.00
2023-04-17T04:56:01.810Z,3002.00
2023-04-17T04:57:01.853Z,2993.00
2023-04-17T04:58:01.884Z,2987.00
2023-04-17T04:59:01.865Z,3039.00
2023-04-17T05:00:01.981Z,3125.00
2023-04-17T05:01:01.991Z,3146.00
2023-04-17T05:02:02.053Z,2992.00
2023-04-17T05:03:02.200Z,2776.00
2023-04-17T05:04:02.223Z,2735.00
2023-04-17T05:05:02.158Z,2900.00
2023-04-17T05:06:02.075Z,3049.00
2023-04-17T05:07:02.107Z,3080.00
2023-04-17T05:08:02.059Z,3086.00
2023-04-17T05:09:02.159Z,3069.00
2023-04-17T05:10:02.057Z,3070.00
2023-04-17T05:11:02.141Z,3035.00
2023-04-17T05:12:02.067Z,3064.00
2023-04-17T05:13:02.076Z,3075.00
2023-04-17T05:14:02.096Z,3189.00
2023-04-17T05:15:02.123Z,3471.00
2023-04-17T05:16:02.248Z,3143.00
2023-04-17T05:17:02.161Z,3181.00
2023-04-17T05:18:02.229Z,3114.00
2023-04-17T05:19:02.157Z,2971.00
2023-04-17T05:20:02.145Z,2773.00
2023-04-17T05:21:02.190Z,2873.00
2023-04-17T05:22:02.172Z,2905.00
2023-04-17T05:23:02.186Z,2782.00
2023-04-17T05:24:02.373Z,2755.00
2023-04-17T05:25:03.079Z,2716.00
2023-04-17T05:26:02.568Z,2686.00
2023-04-17T05:27:02.686Z,2596.00
2023-04-17T05:28:03.052Z,2428.00
2023-04-17T05:29:04.076Z,2373.00
2023-04-17T05:30:03.999Z,2218.00
2023-04-17T05:31:02.826Z,2193.00
2023-04-17T05:32:03.121Z,2216.00
2023-04-17T05:33:02.765Z,2206.00
2023-04-17T05:34:03.032Z,2218.00
2023-04-17T05:35:06.636Z,2431.00
2023-04-17T05:36:05.099Z,2438.00
2023-04-17T05:37:03.306Z,2465.00
2023-04-17T05:38:03.426Z,2476.00
2023-04-17T05:39:02.806Z,2516.00
2023-04-17T05:40:02.851Z,2560.00
2023-04-17T05:41:03.939Z,2628.00
2023-04-17T05:42:04.580Z,2676.00
2023-04-17T05:43:03.651Z,2913.00
2023-04-17T05:44:03.751Z,2921.00
2023-04-17T05:45:03.243Z,2941.00
2023-04-17T05:46:03.214Z,3003.00
2023-04-17T05:47:02.993Z,3107.00
2023-04-17T05:48:03.114Z,3182.00
2023-04-17T05:49:02.970Z,3188.00
2023-04-17T05:50:02.032Z,3233.00
2023-04-17T05:51:02.961Z,3396.00
2023-04-17T05:52:03.469Z,3480.00
2023-04-17T05:53:04.653Z,3499.00
2023-04-17T05:54:04.223Z,3648.00
2023-04-17T05:55:02.907Z,3652.00
2023-04-17T05:56:03.113Z,3685.00
2023-04-17T05:57:03.963Z,3792.00
2023-04-17T05:58:16.891Z,4046.00
2023-04-17T05:59:03.279Z,3673.00
2023-04-17T06:00:34.986Z,3803.00
2023-04-17T06:01:06.837Z,3686.00
2023-04-17T06:02:03.476Z,3695.00
2023-04-17T06:03:03.300Z,3862.00
2023-04-17T06:04:03.511Z,4122.00
2023-04-17T06:05:03.951Z,4478.00
2023-04-17T06:06:03.355Z,4915.00
2023-04-17T06:07:03.109Z,5011.00
2023-04-17T06:08:06.870Z,4938.00
2023-04-17T06:09:03.545Z,4791.00
2023-04-17T06:10:03.034Z,4647.00
2023-04-17T06:11:03.701Z,4540.00
2023-04-17T06:12:03.034Z,4490.00
2023-04-17T06:13:02.944Z,4418.00
2023-04-17T06:14:05.078Z,4241.00
2023-04-17T06:15:08.085Z,4052.00
2023-04-17T06:16:03.052Z,4023.00
2023-04-17T06:17:03.807Z,3914.00
2023-04-17T06:18:05.090Z,3837.00
2023-04-17T06:19:03.193Z,3825.00
2023-04-17T06:20:03.282Z,3880.00
2023-04-17T06:21:03.589Z,3921.00
2023-04-17T06:22:08.719Z,3839.00
2023-04-17T06:23:03.100Z,3841.00
2023-04-17T06:24:03.053Z,3834.00
2023-04-17T06:25:03.060Z,3760.00
2023-04-17T06:26:03.313Z,3670.00
2023-04-17T06:27:03.562Z,3637.00
2023-04-17T06:28:15.410Z,3617.00
2023-04-17T06:29:13.257Z,3618.00
2023-04-17T06:30:08.794Z,3619.00
2023-04-17T06:31:05.723Z,3619.00
2023-04-17T06:32:09.685Z,3599.00
2023-04-17T06:33:10.282Z,3444.00
2023-04-17T06:34:09.864Z,3381.00
2023-04-17T06:35:04.266Z,3434.00
2023-04-17T06:36:06.746Z,3399.00
2023-04-17T06:37:05.873Z,3398.00
2023-04-17T06:38:03.267Z,3379.00
2023-04-17T06:39:08.050Z,3277.00
2023-04-17T06:40:03.988Z,3243.00
2023-04-17T06:41:17.712Z,3286.00
2023-04-17T06:42:30.584Z,500.00
2023-04-17T06:43:35.797Z,500.00
2023-04-17T06:44:26.082Z,500.00
2023-04-17T06:45:34.658Z,500.00
2023-04-17T06:46:26.903Z,500.00
2023-04-17T06:47:26.289Z,500.00
2023-04-17T06:48:24.499Z,500.00
2023-04-17T06:49:25.668Z,500.00
2023-04-17T06:50:30.209Z,500.00
2023-04-17T06:51:24.546Z,500.00
2023-04-17T06:52:24.933Z,500.00
2023-04-17T06:53:26.548Z,500.00
2023-04-17T06:54:27.421Z,500.00
2023-04-17T06:55:23.232Z,500.00
2023-04-17T06:56:24.887Z,500.00
2023-04-17T06:57:30.800Z,500.00
2023-04-17T06:58:24.965Z,500.00
2023-04-17T06:59:29.381Z,500.00
2023-04-17T07:00:27.612Z,500.00
2023-04-17T07:01:27.951Z,500.00
2023-04-17T07:02:27.987Z,500.00
2023-04-17T07:03:28.692Z,500.00
2023-04-17T07:04:26.554Z,500.00
2023-04-17T07:05:24.372Z,500.00
2023-04-17T07:06:25.086Z,500.00
2023-04-17T07:07:29.588Z,500.00
2023-04-17T07:08:27.417Z,500.00
2023-04-17T07:09:38.832Z,500.00
2023-04-17T07:10:51.729Z,500.00
2023-04-17T07:11:55.236Z,500.00
2023-04-17T07:12:45.780Z,500.00
2023-04-17T07:13:49.235Z,500.00
2023-04-17T07:14:45.178Z,500.00
2023-04-17T07:15:52.754Z,500.00
2023-04-17T07:16:50.548Z,500.00
2023-04-17T07:17:44.274Z,500.00
2023-04-17T07:18:43.418Z,500.00
2023-04-17T07:19:43.245Z,500.00
2023-04-17T07:20:44.289Z,500.00
2023-04-17T07:21:45.303Z,500.00
2023-04-17T07:22:48.305Z,500.00
2023-04-17T07:23:50.238Z,500.00
2023-04-17T07:24:52.343Z,500.00
2023-04-17T07:25:43.781Z,500.00
2023-04-17T07:26:43.883Z,500.00
2023-04-17T07:27:44.698Z,500.00
2023-04-17T07:28:43.974Z,500.00
2023-04-17T07:29:43.510Z,500.00
2023-04-17T07:30:44.610Z,500.00
2023-04-17T07:31:53.301Z,500.00
2023-04-17T07:32:46.781Z,500.00
2023-04-17T07:33:46.215Z,500.00
2023-04-17T07:34:45.113Z,500.00
2023-04-17T07:35:43.545Z,500.00
2023-04-17T07:36:45.093Z,500.00
2023-04-17T07:37:43.654Z,500.00
2023-04-17T07:38:44.215Z,500.00
2023-04-17T07:39:45.172Z,500.00
2023-04-17T07:40:45.715Z,500.00
2023-04-17T07:41:44.538Z,500.00
2023-04-17T07:42:45.718Z,500.00
2023-04-17T07:43:44.484Z,500.00
2023-04-17T07:44:43.621Z,500.00
2023-04-17T07:45:43.953Z,500.00
2023-04-17T07:46:44.414Z,500.00
2023-04-17T07:47:45.088Z,500.00
2023-04-17T07:48:44.870Z,500.00
2023-04-17T07:49:46.728Z,500.00
2023-04-17T07:50:44.910Z,500.00
2023-04-17T07:51:43.551Z,500.00
2023-04-17T07:52:45.726Z,500.00
2023-04-17T07:53:44.187Z,500.00
2023-04-17T07:54:45.978Z,500.00
2023-04-17T07:55:46.211Z,500.00
2023-04-17T07:56:45.050Z,500.00
2023-04-17T07:57:45.486Z,500.00
2023-04-17T07:58:48.148Z,500.00
2023-04-17T07:59:46.667Z,500.00
2023-04-17T08:01:16.999Z,500.00
2023-04-17T08:01:46.083Z,500.00
2023-04-17T08:02:47.856Z,500.00
2023-04-17T08:03:46.962Z,500.00
2023-04-17T08:04:45.369Z,500.00
2023-04-17T08:05:44.735Z,500.00
2023-04-17T08:06:46.732Z,500.00
2023-04-17T08:07:54.720Z,500.00
2023-04-17T08:08:55.458Z,500.00
2023-04-17T08:09:44.944Z,500.00
2023-04-17T08:10:46.028Z,500.00
2023-04-17T08:11:56.179Z,500.00
2023-04-17T08:12:46.723Z,500.00
2023-04-17T08:13:48.728Z,500.00
2023-04-17T08:14:46.768Z,500.00
2023-04-17T08:15:46.728Z,500.00
2023-04-17T08:16:47.777Z,500.00
2023-04-17T08:17:44.909Z,500.00
2023-04-17T08:18:46.381Z,500.00
2023-04-17T08:19:45.107Z,500.00
2023-04-17T08:20:47.092Z,500.00
2023-04-17T08:21:48.779Z,500.00
2023-04-17T08:24:05.481Z,500.00
2023-04-17T08:25:14.520Z,500.00
2023-04-17T08:26:07.111Z,500.00
2023-04-17T08:27:19.928Z,500.00
2023-04-17T08:28:07.148Z,500.00
2023-04-17T08:29:06.900Z,500.00
2023-04-17T08:30:06.165Z,500.00
2023-04-17T08:31:06.104Z,500.00
2023-04-17T08:32:14.745Z,500.00
2023-04-17T08:33:09.367Z,500.00
2023-04-17T08:34:14.535Z,500.00
2023-04-17T08:35:08.060Z,500.00
2023-04-17T08:36:08.602Z,500.00
2023-04-17T08:37:06.790Z,500.00
2023-04-17T08:38:04.345Z,500.00
2023-04-17T08:39:05.854Z,500.00
2023-04-17T08:40:06.784Z,500.00
2023-04-17T08:41:04.218Z,500.00
2023-04-17T08:42:05.207Z,500.00
2023-04-17T08:43:04.445Z,500.00
2023-04-17T08:44:04.376Z,500.00
2023-04-17T08:45:04.713Z,500.00
2023-04-17T08:46:05.264Z,442.00
2023-04-17T08:47:03.998Z,469.00
2023-04-17T08:48:05.280Z,516.00
2023-04-17T08:49:05.623Z,511.00
2023-04-17T08:50:04.993Z,516.00
2023-04-17T08:51:05.708Z,565.00
2023-04-17T08:52:04.476Z,597.00
2023-04-17T08:53:04.548Z,563.00
2023-04-17T08:54:04.996Z,502.00
2023-04-17T08:55:05.415Z,586.00
2023-04-17T08:56:06.887Z,612.00
2023-04-17T08:57:06.792Z,613.00
2023-04-17T08:58:06.802Z,630.00
2023-04-17T08:59:04.877Z,617.00
2023-04-17T09:00:05.056Z,648.00
2023-04-17T09:01:05.502Z,839.00
2023-04-17T09:02:05.373Z,973.00
2023-04-17T09:03:05.302Z,1023.00
2023-04-17T09:04:05.348Z,613.00
2023-04-17T09:05:07.316Z,613.00
2023-04-17T09:06:08.099Z,600.00
2023-04-17T09:07:06.627Z,595.00
2023-04-17T09:08:05.366Z,630.00
2023-04-17T09:09:04.476Z,621.00
2023-04-17T09:10:07.793Z,671.00
2023-04-17T09:11:05.792Z,628.00
2023-04-17T09:12:06.792Z,717.00
2023-04-17T09:13:05.389Z,866.00
2023-04-17T09:14:06.792Z,618.00
2023-04-17T09:15:07.421Z,616.00
2023-04-17T09:16:08.100Z,612.00
2023-04-17T09:17:05.184Z,613.00
2023-04-17T09:18:04.851Z,629.00
2023-04-17T09:19:05.099Z,706.00
2023-04-17T09:20:05.307Z,921.00
2023-04-17T09:21:07.431Z,1272.00
2023-04-17T09:22:06.792Z,663.00
2023-04-17T09:23:07.422Z,761.00
2023-04-17T09:24:04.768Z,828.00
2023-04-17T09:25:06.452Z,1917.00
2023-04-17T09:26:04.489Z,830.00
2023-04-17T09:27:10.474Z,2272.00
2023-04-17T09:28:13.058Z,844.00
2023-04-17T09:29:04.288Z,782.00
2023-04-17T09:30:05.165Z,1886.00
2023-04-17T09:31:06.026Z,3768.00
2023-04-17T09:32:06.195Z,861.00
2023-04-17T09:33:06.806Z,846.00
2023-04-17T09:34:06.127Z,824.00
2023-04-17T09:35:07.448Z,849.00
2023-04-17T09:36:05.978Z,821.00
2023-04-17T09:37:07.075Z,796.00
2023-04-17T09:38:06.806Z,811.00
2023-04-17T09:39:05.565Z,1637.00
2023-04-17T09:40:06.047Z,830.00
2023-04-17T09:41:07.045Z,1453.00
2023-04-17T09:42:06.047Z,767.00
2023-04-17T09:43:09.442Z,750.00
2023-04-17T09:44:05.808Z,660.00
2023-04-17T09:45:06.810Z,649.00
2023-04-17T09:46:04.614Z,763.00
2023-04-17T09:47:04.885Z,957.00
2023-04-17T09:48:04.714Z,1510.00
2023-04-17T09:49:05.960Z,5181.00
2023-04-17T09:50:05.691Z,4675.00
2023-04-17T09:51:09.194Z,3237.00
2023-04-17T09:52:05.070Z,2899.00
2023-04-17T09:53:05.362Z,3273.00
2023-04-17T09:54:04.536Z,3505.00
2023-04-17T09:55:05.077Z,3918.00
2023-04-17T09:56:04.739Z,3301.00
2023-04-17T09:57:04.660Z,4986.00
2023-04-17T09:58:05.169Z,4359.00
2023-04-17T09:59:05.021Z,3887.00
2023-04-17T10:00:06.589Z,3858.00
2023-04-17T10:01:06.912Z,3867.00
2023-04-17T10:02:12.693Z,2981.00
2023-04-17T10:03:05.856Z,2272.00
2023-04-17T10:04:04.622Z,3927.00
2023-04-17T10:05:04.719Z,3905.00
2023-04-17T10:06:07.870Z,3923.00
2023-04-17T10:07:05.162Z,3871.00
2023-04-17T10:08:04.256Z,3550.00
2023-04-17T10:09:17.389Z,2512.00
2023-04-17T10:10:30.344Z,500.00
2023-04-17T10:11:25.147Z,500.00
2023-04-17T10:12:26.108Z,500.00
2023-04-17T10:13:24.112Z,500.00
2023-04-17T10:14:23.974Z,500.00
2023-04-17T10:15:26.944Z,500.00
2023-04-17T10:16:27.167Z,500.00
2023-04-17T10:17:25.929Z,500.00
2023-04-17T10:18:24.949Z,500.00
2023-04-17T10:19:23.959Z,500.00
2023-04-17T10:20:24.469Z,500.00
2023-04-17T10:21:24.081Z,500.00
2023-04-17T10:22:24.236Z,500.00
2023-04-17T10:23:25.343Z,500.00
2023-04-17T10:24:25.528Z,647.00
2023-04-17T10:25:25.428Z,518.00
2023-04-17T10:26:26.499Z,492.00
2023-04-17T10:27:25.209Z,465.00
2023-04-17T10:28:24.751Z,482.00
2023-04-17T10:29:24.944Z,504.00
2023-04-17T10:30:24.568Z,455.00
2023-04-17T10:31:26.232Z,481.00
2023-04-17T10:32:25.265Z,490.00
2023-04-17T10:33:25.675Z,458.00
2023-04-17T10:34:25.056Z,466.00
2023-04-17T10:35:24.992Z,579.00
2023-04-17T10:36:25.152Z,604.00
2023-04-17T10:37:25.607Z,507.00
2023-04-17T10:38:28.489Z,437.00
2023-04-17T10:39:25.119Z,440.00
2023-04-17T10:40:26.793Z,507.00
2023-04-17T10:41:27.528Z,502.00
2023-04-17T10:42:25.929Z,438.00
2023-04-17T10:43:27.611Z,517.00
2023-04-17T10:44:26.317Z,463.00
2023-04-17T10:45:27.801Z,460.00
2023-04-17T10:46:25.502Z,457.00
2023-04-17T10:47:28.386Z,543.00
2023-04-17T10:48:27.040Z,458.00
2023-04-17T10:49:25.281Z,461.00
2023-04-17T10:50:26.058Z,551.00
2023-04-17T10:51:29.468Z,736.00
2023-04-17T10:53:44.794Z,500.00
2023-04-17T10:54:53.098Z,500.00
2023-04-17T10:55:49.123Z,500.00
2023-04-17T10:56:49.287Z,500.00
2023-04-17T10:57:48.420Z,500.00
2023-04-17T10:58:47.716Z,500.00
2023-04-17T10:59:48.571Z,500.00
2023-04-17T11:00:47.026Z,500.00
2023-04-17T11:01:48.776Z,500.00
2023-04-17T11:02:47.025Z,500.00
2023-04-17T11:03:48.435Z,500.00
2023-04-17T11:04:45.936Z,500.00
2023-04-17T11:05:46.220Z,500.00
2023-04-17T11:06:48.026Z,500.00
2023-04-17T11:07:45.382Z,500.00
2023-04-17T11:08:47.035Z,500.00
2023-04-17T11:09:47.028Z,500.00
2023-04-17T11:10:51.589Z,500.00
2023-04-17T11:11:45.610Z,500.00
2023-04-17T11:12:45.311Z,500.00
2023-04-17T11:13:48.637Z,500.00
2023-04-17T11:14:44.537Z,500.00
2023-04-17T11:15:51.090Z,500.00
2023-04-17T11:16:46.951Z,500.00
2023-04-17T11:17:48.229Z,500.00
2023-04-17T11:18:48.928Z,500.00
2023-04-17T11:19:47.569Z,500.00
2023-04-17T11:20:52.411Z,500.00
2023-04-17T11:21:46.040Z,500.00
2023-04-17T11:22:45.036Z,500.00
2023-04-17T11:23:46.047Z,500.00
2023-04-17T11:24:47.036Z,500.00
2023-04-17T11:25:46.114Z,500.00
2023-04-17T11:26:46.033Z,500.00
2023-04-17T11:27:47.112Z,500.00
2023-04-17T11:28:46.033Z,500.00
2023-04-17T11:29:47.033Z,500.00
2023-04-17T11:30:45.241Z,500.00
2023-04-17T11:31:43.938Z,500.00
2023-04-17T11:32:44.520Z,500.00
2023-04-17T11:33:44.704Z,500.00
2023-04-17T11:34:44.984Z,500.00
2023-04-17T11:35:44.308Z,521.00
2023-04-17T11:36:43.909Z,505.00
2023-04-17T11:37:44.246Z,616.00
2023-04-17T11:38:45.185Z,1535.00
2023-04-17T11:39:45.035Z,644.00
2023-04-17T11:40:44.486Z,676.00
2023-04-17T11:41:43.588Z,731.00
2023-04-17T11:42:46.251Z,701.00
2023-04-17T11:43:45.238Z,1024.00
2023-04-17T11:44:47.021Z,651.00
2023-04-17T11:45:46.120Z,652.00
2023-04-17T11:46:45.617Z,400.00
2023-04-17T11:47:44.527Z,400.00
2023-04-17T11:48:45.269Z,455.00
2023-04-17T11:49:45.064Z,400.00
2023-04-17T11:50:44.068Z,400.00
2023-04-17T11:51:44.514Z,400.00
2023-04-17T11:52:43.521Z,786.00
2023-04-17T11:53:45.071Z,400.00
2023-04-17T11:54:46.036Z,400.00
2023-04-17T11:55:45.123Z,400.00
2023-04-17T11:56:45.038Z,443.00
2023-04-17T11:57:45.103Z,400.00
2023-04-17T11:58:44.041Z,445.00
2023-04-17T11:59:46.051Z,629.00
2023-04-17T12:00:43.044Z,400.00
2023-04-17T12:01:45.043Z,400.00
2023-04-17T12:02:44.202Z,400.00
2023-04-17T12:03:45.598Z,486.00
2023-04-17T12:04:44.258Z,647.00
2023-04-17T12:05:44.109Z,545.00
2023-04-17T12:06:42.652Z,648.00
2023-04-17T12:07:42.241Z,400.00
2023-04-17T12:08:41.782Z,400.00
2023-04-17T12:09:41.673Z,400.00
2023-04-17T12:10:42.237Z,400.00
2023-04-17T12:11:44.043Z,400.00
2023-04-17T12:12:43.041Z,654.00
2023-04-17T12:13:43.049Z,663.00
2023-04-17T12:14:43.057Z,400.00
2023-04-17T12:15:42.046Z,400.00
2023-04-17T12:16:44.093Z,400.00
2023-04-17T12:17:42.064Z,400.00
2023-04-17T12:18:43.045Z,400.00
2023-04-17T12:19:42.047Z,400.00
2023-04-17T12:20:42.136Z,400.00
2023-04-17T12:21:44.056Z,400.00
2023-04-17T12:22:43.045Z,400.00